Barcelona International Airport (BCN/LEBL)




Flight Aircraft Arriving
CPX1144 B738
EBLG - Liège Airport
Belgium Liege, Belgium
Flight Aircraft Departing
CPX1143 B738
EBLG - Liège Airport
Belgium Liege, Belgium
Airport Information
Location: Barcelona, ES
Coordinates: 41.2971 / 2.07846
Elevation:
Time Offset:
Local Time:
UTC Time:
Jet A Price: $/lbs

Current Weather
METAR: LEBL 051430Z 30011KT 9999 FEW030 11/M00 Q0999 NOSIG
TAF: TAF LEBL 051100Z 0512/0612 27010KT 9999 FEW030 TX12/0512Z TN05/0606Z TEMPO 0512/0515 VRB04KT BECMG 0600/0602 33010KT

Recent Arrivals
Date Flight Type Depart
Recent Departures
Date Flight Type Arrive